Sherburn, Minnesota
Current Conditions -  °F | °C
As of 5:54 PM on Friday 21 Nov 2014 (Local Time) from KMJQ Reporting Station
Scattered Clouds Scattered Clouds  
Wind Chill: 19°   Ceiling: Unl
Heat Index: 32°   Visibility: 10mi
Dew Point: 27°   Wind: 22mph
Humidity: 80%   Direction: 180°S
Pressure: 29.94"   Gusts: NA
Location:  43.65°N, 94.73°W
Report Text: KMJQ 212354Z AUTO 18019KT 10SM SCT110 00/M03 A2994 RMK AO2
Loading
Personal Weather Stations






























Interactive Weather Map New forecast layout! Learn more

10-Day Weather Forecast

Advertisements
Track Severe Weather on mobile